createdAt,value
2019-05-07T00:01:23.482Z,72.24
2019-05-07T00:03:54.378Z,72.40
2019-05-07T00:06:25.148Z,72.95
2019-05-07T00:08:55.952Z,73.53
2019-05-07T00:11:26.718Z,73.12
2019-05-07T00:13:57.520Z,73.02
2019-05-07T00:16:28.287Z,73.08
2019-05-07T00:18:59.085Z,72.54
2019-05-07T00:21:29.856Z,72.31
2019-05-07T00:24:02.235Z,72.00
2019-05-07T00:26:33.132Z,72.18
2019-05-07T00:29:03.921Z,72.76
2019-05-07T00:31:34.696Z,72.92
2019-05-07T00:34:05.467Z,72.33
2019-05-07T00:36:44.207Z,72.32
2019-05-07T00:39:16.902Z,72.83
2019-05-07T00:41:49.581Z,73.37
2019-05-07T00:44:22.092Z,73.58
2019-05-07T00:46:53.045Z,73.48
2019-05-07T00:49:25.620Z,73.08
2019-05-07T00:51:56.420Z,72.97
2019-05-07T00:54:27.209Z,73.61
2019-05-07T00:56:57.980Z,73.81
2019-05-07T00:59:28.771Z,74.34
2019-05-07T01:01:59.534Z,71.86
2019-05-07T01:04:30.312Z,72.84
2019-05-07T01:07:02.760Z,73.64
2019-05-07T01:09:33.672Z,74.09
2019-05-07T01:12:04.449Z,74.48
2019-05-07T01:14:35.226Z,74.15
2019-05-07T01:17:05.996Z,72.80
2019-05-07T01:19:36.762Z,74.21
2019-05-07T01:22:07.537Z,73.64
2019-05-07T01:24:38.315Z,73.73
2019-05-07T01:27:09.102Z,74.80
2019-05-07T01:29:39.871Z,74.99
2019-05-07T01:32:12.783Z,74.84
2019-05-07T01:34:54.095Z,75.18
2019-05-07T01:37:24.832Z,74.61
2019-05-07T01:39:55.625Z,74.08
2019-05-07T01:42:26.424Z,74.73
2019-05-07T01:44:57.188Z,73.64
2019-05-07T01:47:27.938Z,74.48
2019-05-07T01:49:58.725Z,75.24
2019-05-07T01:52:29.491Z,74.18
2019-05-07T01:55:02.994Z,72.47
2019-05-07T01:57:32.957Z,73.78
2019-05-07T02:00:06.032Z,75.23
2019-05-07T02:02:38.706Z,75.34
2019-05-07T02:05:28.323Z,74.13
2019-05-07T02:08:02.844Z,72.41
2019-05-07T02:10:42.791Z,73.00
2019-05-07T02:13:13.712Z,74.32
2019-05-07T02:15:57.334Z,75.32
2019-05-07T02:18:17.165Z,75.60
2019-05-07T02:20:47.931Z,75.75
2019-05-07T02:23:18.697Z,75.30
2019-05-07T02:25:49.485Z,75.39
2019-05-07T02:28:22.278Z,75.10
2019-05-07T02:30:53.645Z,76.14
2019-05-07T02:33:24.444Z,76.39
2019-05-07T02:35:55.222Z,75.84
2019-05-07T02:38:34.152Z,75.72
2019-05-07T02:41:07.067Z,76.58
2019-05-07T02:43:37.885Z,76.70
2019-05-07T02:46:24.966Z,76.44
2019-05-07T02:48:47.919Z,76.44
2019-05-07T02:51:23.800Z,76.32
2019-05-07T02:53:55.365Z,76.48
2019-05-07T02:56:26.143Z,77.53
2019-05-07T02:58:56.927Z,77.30
2019-05-07T03:01:27.695Z,76.66
2019-05-07T03:03:58.496Z,77.31
2019-05-07T03:06:29.276Z,77.47
2019-05-07T03:09:03.001Z,76.47
2019-05-07T03:11:34.051Z,76.49
2019-05-07T03:14:04.917Z,77.48
2019-05-07T03:16:43.793Z,76.70
2019-05-07T03:19:08.492Z,77.62
2019-05-07T03:21:54.683Z,78.04
2019-05-07T03:24:34.201Z,78.62
2019-05-07T03:27:05.240Z,78.17
2019-05-07T03:29:37.936Z,78.45
2019-05-07T03:32:16.030Z,78.69
2019-05-07T03:34:47.986Z,77.96
2019-05-07T03:37:23.309Z,78.58
2019-05-07T03:39:53.852Z,78.41
2019-05-07T03:42:24.737Z,78.43
2019-05-07T03:44:57.403Z,77.49
2019-05-07T03:47:43.944Z,77.99
2019-05-07T03:50:15.096Z,78.51
2019-05-07T03:52:46.025Z,78.51
2019-05-07T03:55:16.816Z,78.49
2019-05-07T03:57:47.685Z,78.83
2019-05-07T04:00:18.520Z,78.50
2019-05-07T04:02:49.309Z,78.18
2019-05-07T04:05:22.950Z,77.76
2019-05-07T04:07:54.071Z,77.99
2019-05-07T04:10:24.949Z,77.68
2019-05-07T04:12:55.730Z,76.93
2019-05-07T04:15:26.503Z,77.25
2019-05-07T04:17:57.271Z,76.51
2019-05-07T04:20:28.037Z,77.82
2019-05-07T04:22:58.813Z,78.30
2019-05-07T04:25:43.303Z,78.04
2019-05-07T04:28:17.653Z,77.70
2019-05-07T04:30:48.738Z,77.81
2019-05-07T04:33:23.679Z,77.56
2019-05-07T04:36:03.585Z,78.42
2019-05-07T04:38:34.373Z,78.49
2019-05-07T04:41:05.131Z,78.16
2019-05-07T04:43:35.886Z,76.95
2019-05-07T04:46:06.660Z,77.51
2019-05-07T04:48:37.466Z,77.45
2019-05-07T04:51:12.656Z,77.42
2019-05-07T04:53:43.187Z,76.58
2019-05-07T04:56:14.261Z,76.52
2019-05-07T04:58:45.106Z,76.68
2019-05-07T05:01:17.669Z,75.24
2019-05-07T05:03:48.451Z,75.93
2019-05-07T05:06:19.322Z,75.92
2019-05-07T05:08:53.320Z,74.65
2019-05-07T05:11:23.643Z,74.56
2019-05-07T05:13:54.797Z,75.41
2019-05-07T05:16:26.070Z,76.11
2019-05-07T05:18:56.965Z,75.90
2019-05-07T05:21:29.633Z,76.28
2019-05-07T05:24:02.325Z,75.17
2019-05-07T05:26:33.117Z,75.15
2019-05-07T05:29:03.888Z,75.79
2019-05-07T05:31:34.650Z,76.65
2019-05-07T05:34:05.420Z,75.72
2019-05-07T05:36:36.190Z,74.15
2019-05-07T05:39:07.576Z,73.73
2019-05-07T05:41:42.082Z,75.11
2019-05-07T05:44:14.858Z,74.89
2019-05-07T05:46:45.829Z,73.64
2019-05-07T05:49:16.617Z,73.86
2019-05-07T05:51:49.286Z,73.86
2019-05-07T05:54:24.748Z,72.38
2019-05-07T05:57:14.015Z,72.54
2019-05-07T05:59:55.226Z,72.72
2019-05-07T06:02:39.015Z,71.61
2019-05-07T06:05:28.789Z,72.37
2019-05-07T06:08:03.726Z,71.98
2019-05-07T06:10:36.059Z,71.75
2019-05-07T06:13:17.629Z,71.25
2019-05-07T06:15:59.055Z,70.90
2019-05-07T06:18:48.163Z,69.91
2019-05-07T06:21:37.740Z,68.98
2019-05-07T06:24:19.492Z,70.70
2019-05-07T06:26:52.151Z,69.70
2019-05-07T06:29:23.225Z,70.50
2019-05-07T06:32:04.670Z,70.45
2019-05-07T06:34:35.451Z,69.74
2019-05-07T06:37:06.217Z,69.79
2019-05-07T06:39:44.737Z,68.44
2019-05-07T06:42:26.243Z,69.12
2019-05-07T06:45:08.270Z,67.18
2019-05-07T06:47:39.037Z,68.26
2019-05-07T06:50:12.387Z,68.34
2019-05-07T06:52:42.736Z,68.01
2019-05-07T06:55:13.501Z,68.22
2019-05-07T06:57:44.532Z,68.20
2019-05-07T07:00:22.428Z,66.81
2019-05-07T07:02:57.845Z,65.52
2019-05-07T07:05:33.296Z,64.12
2019-05-07T07:08:12.449Z,62.56
2019-05-07T07:11:02.406Z,61.21
2019-05-07T07:13:32.580Z,63.14
2019-05-07T07:16:03.354Z,65.28
2019-05-07T07:18:47.607Z,63.29
2019-05-07T07:21:06.791Z,61.57
2019-05-07T07:23:37.564Z,61.28
2019-05-07T07:26:08.431Z,61.49
2019-05-07T07:28:39.198Z,60.73
2019-05-07T07:31:13.009Z,61.10
2019-05-07T07:33:48.610Z,59.92
2019-05-07T07:36:22.562Z,57.63
2019-05-07T07:38:53.362Z,58.85
2019-05-07T07:41:26.035Z,55.96
2019-05-07T07:43:56.800Z,58.57
2019-05-07T07:46:27.581Z,55.70
2019-05-07T07:49:07.802Z,57.43
2019-05-07T07:51:38.894Z,55.70
2019-05-07T07:54:03.797Z,54.13
2019-05-07T07:56:50.128Z,55.21
2019-05-07T07:59:22.023Z,53.07
2019-05-07T08:01:54.528Z,52.37
2019-05-07T08:04:25.282Z,52.15
2019-05-07T08:07:02.880Z,51.36
2019-05-07T08:09:34.040Z,48.94
2019-05-07T08:12:05.039Z,47.04
2019-05-07T08:14:36.002Z,49.28
2019-05-07T08:17:08.069Z,49.74
2019-05-07T08:19:38.833Z,47.65
2019-05-07T08:22:11.489Z,47.47
2019-05-07T08:24:42.802Z,46.86
2019-05-07T08:27:15.242Z,47.03
2019-05-07T08:29:46.365Z,44.23
2019-05-07T08:32:25.070Z,43.58
2019-05-07T08:35:03.721Z,43.53
2019-05-07T08:37:34.500Z,44.71
2019-05-07T08:40:05.366Z,43.86
2019-05-07T08:42:36.147Z,41.79
2019-05-07T08:45:25.572Z,41.46
2019-05-07T08:48:04.649Z,40.23
2019-05-07T08:50:36.022Z,41.80
2019-05-07T08:53:06.825Z,41.55
2019-05-07T08:55:37.577Z,40.88
2019-05-07T08:58:08.787Z,41.30
2019-05-07T09:00:41.736Z,41.54
2019-05-07T09:03:22.155Z,41.85
2019-05-07T09:05:46.898Z,41.01
2019-05-07T09:08:17.671Z,40.53
2019-05-07T09:10:48.439Z,41.49
2019-05-07T09:13:19.213Z,40.11
2019-05-07T09:15:49.978Z,39.95
2019-05-07T09:18:22.900Z,40.76
2019-05-07T09:20:53.741Z,40.67
2019-05-07T09:23:24.614Z,41.83
2019-05-07T09:25:55.408Z,43.42
2019-05-07T09:28:29.160Z,40.98
2019-05-07T09:31:02.686Z,42.51
2019-05-07T09:33:38.743Z,42.13
2019-05-07T09:36:12.143Z,41.78
2019-05-07T09:38:56.014Z,42.13
2019-05-07T09:41:27.745Z,42.73
2019-05-07T09:43:58.521Z,43.31
2019-05-07T09:46:29.282Z,43.08
2019-05-07T09:49:00.142Z,42.57
2019-05-07T09:51:32.246Z,42.53
2019-05-07T09:54:03.318Z,42.22
2019-05-07T09:56:34.076Z,42.16
2019-05-07T09:59:04.869Z,41.92
2019-05-07T10:01:35.935Z,43.17
2019-05-07T10:04:06.711Z,42.64
2019-05-07T10:06:37.474Z,42.47
2019-05-07T10:09:08.455Z,41.29
2019-05-07T10:11:41.123Z,39.25
2019-05-07T10:14:12.612Z,38.63
2019-05-07T10:17:02.861Z,41.11
2019-05-07T10:19:33.696Z,37.48
2019-05-07T10:22:04.459Z,38.04
2019-05-07T10:24:35.431Z,38.79
2019-05-07T10:27:06.197Z,37.06
2019-05-07T10:29:37.481Z,34.30
2019-05-07T10:32:08.239Z,33.61
2019-05-07T10:34:39.015Z,32.83
2019-05-07T10:37:11.879Z,36.26
2019-05-07T10:39:43.002Z,35.33
2019-05-07T10:42:13.847Z,33.93
2019-05-07T10:44:46.529Z,33.33
2019-05-07T10:47:28.027Z,34.14
2019-05-07T10:50:17.518Z,34.14
2019-05-07T10:52:48.368Z,32.85
2019-05-07T10:55:19.245Z,34.90
2019-05-07T10:57:50.010Z,32.90
2019-05-07T11:00:23.471Z,35.17
2019-05-07T11:02:54.242Z,35.78
2019-05-07T11:05:25.012Z,35.72
2019-05-07T11:07:55.774Z,36.39
2019-05-07T11:10:26.563Z,34.88
2019-05-07T11:12:57.426Z,35.16
2019-05-07T11:15:28.223Z,37.35
2019-05-07T11:18:03.487Z,34.94
2019-05-07T11:20:46.359Z,37.17
2019-05-07T11:23:07.042Z,34.83
2019-05-07T11:25:37.815Z,34.94
2019-05-07T11:28:08.787Z,36.68
2019-05-07T11:30:39.871Z,35.62
2019-05-07T11:33:12.571Z,35.16
2019-05-07T11:35:43.812Z,34.76
2019-05-07T11:38:20.554Z,35.97
2019-05-07T11:40:47.262Z,33.43
2019-05-07T11:43:25.709Z,34.51
2019-05-07T11:46:13.505Z,30.28
2019-05-07T11:48:51.797Z,30.96
2019-05-07T11:51:30.291Z,32.26
2019-05-07T11:54:08.176Z,31.21
2019-05-07T11:56:38.978Z,33.16
2019-05-07T11:59:09.736Z,33.16
2019-05-07T12:01:47.128Z,33.45
2019-05-07T12:04:15.210Z,33.76
2019-05-07T12:06:46.002Z,33.03
2019-05-07T12:09:16.773Z,32.56
2019-05-07T12:11:47.550Z,32.94
2019-05-07T12:14:30.695Z,31.35
2019-05-07T12:16:51.012Z,31.24
2019-05-07T12:19:22.680Z,31.24
2019-05-07T12:21:53.561Z,30.54
2019-05-07T12:24:24.314Z,30.29
2019-05-07T12:26:55.421Z,31.58
2019-05-07T12:29:26.493Z,31.27
2019-05-07T12:32:15.846Z,30.30
2019-05-07T12:34:48.526Z,30.78
2019-05-07T12:37:19.319Z,28.75
2019-05-07T12:39:50.084Z,29.49
2019-05-07T12:42:22.325Z,30.11
2019-05-07T12:44:53.132Z,29.15
2019-05-07T12:47:23.916Z,30.01
2019-05-07T12:49:54.680Z,28.48
2019-05-07T12:52:27.366Z,29.36
2019-05-07T12:55:03.122Z,28.99
2019-05-07T12:57:33.318Z,29.10
2019-05-07T13:00:24.529Z,31.66
2019-05-07T13:03:15.366Z,28.60
2019-05-07T13:05:46.128Z,29.25
2019-05-07T13:08:16.915Z,30.86
2019-05-07T13:10:47.686Z,30.03
2019-05-07T13:13:18.471Z,29.20
2019-05-07T13:15:49.239Z,28.93
2019-05-07T13:18:20.048Z,31.53
2019-05-07T13:20:51.974Z,30.54
2019-05-07T13:23:22.894Z,28.92
2019-05-07T13:25:53.864Z,27.91
2019-05-07T13:28:24.659Z,28.03
2019-05-07T13:30:55.426Z,27.59
2019-05-07T13:33:26.702Z,31.57
2019-05-07T13:35:57.476Z,29.06
2019-05-07T13:38:32.347Z,29.13
2019-05-07T13:41:05.241Z,29.53
2019-05-07T13:43:41.249Z,30.16
2019-05-07T13:46:15.171Z,31.66
2019-05-07T13:48:46.123Z,31.66
2019-05-07T13:51:17.130Z,30.12
2019-05-07T13:53:48.012Z,30.16
2019-05-07T13:56:18.779Z,29.91
2019-05-07T13:58:49.603Z,30.76
2019-05-07T14:01:32.767Z,30.39
2019-05-07T14:04:04.235Z,29.64
2019-05-07T14:06:38.164Z,28.84
2019-05-07T14:09:24.223Z,30.11
2019-05-07T14:11:54.496Z,30.11
2019-05-07T14:14:25.245Z,28.67
2019-05-07T14:16:57.215Z,28.92
2019-05-07T14:19:28.099Z,30.06
2019-05-07T14:21:58.872Z,31.46
2019-05-07T14:24:29.645Z,28.79
2019-05-07T14:27:02.002Z,29.13
2019-05-07T14:29:33.011Z,29.77
2019-05-07T14:32:14.935Z,29.77
2019-05-07T14:35:02.565Z,29.95
2019-05-07T14:37:38.027Z,28.51
2019-05-07T14:40:09.352Z,28.96
2019-05-07T14:42:42.028Z,28.96
2019-05-07T14:45:13.127Z,30.67
2019-05-07T14:47:44.742Z,28.30
2019-05-07T14:50:15.888Z,28.32
2019-05-07T14:52:46.656Z,26.51
2019-05-07T14:55:17.558Z,23.81
2019-05-07T14:57:48.474Z,27.32
2019-05-07T15:00:20.158Z,27.91
2019-05-07T15:02:52.524Z,28.08
2019-05-07T15:05:23.422Z,30.04
2019-05-07T15:08:06.639Z,29.35
2019-05-07T15:10:26.930Z,29.64
2019-05-07T15:12:57.859Z,30.14
2019-05-07T15:15:28.646Z,31.12
2019-05-07T15:18:01.363Z,31.90
2019-05-07T15:20:33.101Z,32.98
2019-05-07T15:23:05.878Z,32.98
2019-05-07T15:25:36.759Z,32.53
2019-05-07T15:28:07.515Z,31.94
2019-05-07T15:30:46.306Z,30.67
2019-05-07T15:33:17.196Z,32.89
2019-05-07T15:35:48.077Z,32.65
2019-05-07T15:38:18.853Z,32.83
2019-05-07T15:40:51.794Z,31.90
2019-05-07T15:43:22.311Z,30.82
2019-05-07T15:45:53.114Z,30.64
2019-05-07T15:48:23.853Z,32.67
2019-05-07T15:50:54.637Z,31.93
2019-05-07T15:53:36.408Z,31.82
2019-05-07T15:56:07.192Z,32.52
2019-05-07T15:58:37.956Z,29.46
2019-05-07T16:01:09.126Z,31.12
2019-05-07T16:03:42.903Z,34.05
2019-05-07T16:06:14.132Z,34.05
2019-05-07T16:08:49.122Z,32.34
2019-05-07T16:11:19.683Z,33.83
2019-05-07T16:14:04.672Z,30.52
2019-05-07T16:16:37.352Z,32.06
2019-05-07T16:19:19.049Z,31.60
2019-05-07T16:21:49.843Z,30.51
2019-05-07T16:24:22.573Z,30.51
2019-05-07T16:26:53.304Z,30.93
2019-05-07T16:29:24.072Z,32.57
2019-05-07T16:31:54.850Z,33.01
2019-05-07T16:34:25.614Z,31.75
2019-05-07T16:36:56.394Z,31.78
2019-05-07T16:39:27.150Z,33.28
2019-05-07T16:41:57.928Z,33.08
2019-05-07T16:44:28.690Z,32.03
2019-05-07T16:46:59.484Z,34.75
2019-05-07T16:49:31.879Z,34.75
2019-05-07T16:52:02.732Z,31.89
2019-05-07T16:54:33.498Z,33.83
2019-05-07T16:57:14.991Z,32.27
2019-05-07T16:59:47.960Z,34.99
2019-05-07T17:02:23.697Z,33.73
2019-05-07T17:05:12.374Z,33.00
2019-05-07T17:08:02.375Z,33.00
2019-05-07T17:10:33.133Z,33.38
2019-05-07T17:13:03.922Z,37.43
2019-05-07T17:15:36.640Z,34.18
2019-05-07T17:18:07.411Z,35.84
2019-05-07T17:20:38.221Z,34.14
2019-05-07T17:23:09.140Z,35.28
2019-05-07T17:25:39.896Z,36.01
2019-05-07T17:28:12.603Z,36.21
2019-05-07T17:30:43.381Z,37.80
2019-05-07T17:33:14.144Z,36.91
2019-05-07T17:35:46.263Z,35.94
2019-05-07T17:38:17.100Z,36.11
2019-05-07T17:40:47.878Z,36.13
2019-05-07T17:43:18.831Z,39.21
2019-05-07T17:45:52.069Z,39.30
2019-05-07T17:48:25.545Z,39.07
2019-05-07T17:51:00.714Z,37.68
2019-05-07T17:53:31.998Z,39.01
2019-05-07T17:56:02.909Z,39.03
2019-05-07T17:58:33.695Z,38.81
2019-05-07T18:01:07.503Z,40.41
2019-05-07T18:03:42.760Z,41.31
2019-05-07T18:06:13.666Z,42.35
2019-05-07T18:08:44.599Z,42.65
2019-05-07T18:11:20.876Z,43.00
2019-05-07T18:13:48.030Z,42.38
2019-05-07T18:16:26.568Z,44.80
2019-05-07T18:18:57.439Z,43.09
2019-05-07T18:21:28.204Z,42.21
2019-05-07T18:24:13.436Z,44.15
2019-05-07T18:26:34.705Z,44.63
2019-05-07T18:29:05.729Z,45.99
2019-05-07T18:31:47.332Z,46.68
2019-05-07T18:34:18.391Z,47.06
2019-05-07T18:36:49.463Z,48.41
2019-05-07T18:39:22.149Z,47.71
2019-05-07T18:41:52.983Z,48.49
2019-05-07T18:44:23.838Z,49.84
2019-05-07T18:46:54.736Z,48.32
2019-05-07T18:49:25.575Z,50.06
2019-05-07T18:51:56.340Z,50.38
2019-05-07T18:54:31.284Z,50.66
2019-05-07T18:56:59.803Z,51.62
2019-05-07T18:59:32.075Z,51.76
2019-05-07T19:02:02.981Z,51.82
2019-05-07T19:04:33.738Z,51.66
2019-05-07T19:07:04.526Z,51.50
2019-05-07T19:09:35.568Z,52.31
2019-05-07T19:12:08.254Z,52.75
2019-05-07T19:14:39.058Z,52.69
2019-05-07T19:17:12.101Z,53.20
2019-05-07T19:19:42.518Z,52.99
2019-05-07T19:22:13.505Z,52.52
2019-05-07T19:24:48.017Z,53.08
2019-05-07T19:27:16.987Z,53.59
2019-05-07T19:29:47.759Z,54.70
2019-05-07T19:32:18.549Z,56.02
2019-05-07T19:34:49.323Z,55.98
2019-05-07T19:37:22.256Z,56.22
2019-05-07T19:39:52.795Z,56.38
2019-05-07T19:42:23.564Z,56.47
2019-05-07T19:44:54.355Z,56.99
2019-05-07T19:47:25.127Z,57.11
2019-05-07T19:49:55.913Z,56.92
2019-05-07T19:52:26.927Z,57.89
2019-05-07T19:55:01.443Z,57.86
2019-05-07T19:57:33.192Z,58.25
2019-05-07T20:00:05.445Z,58.54
2019-05-07T20:02:44.331Z,58.67
2019-05-07T20:05:17.438Z,59.83
2019-05-07T20:07:48.356Z,59.33
2019-05-07T20:10:24.145Z,58.99
2019-05-07T20:12:54.957Z,59.80
2019-05-07T20:15:25.774Z,60.43
2019-05-07T20:17:56.518Z,60.11
2019-05-07T20:20:27.330Z,61.09
2019-05-07T20:23:02.560Z,60.07
2019-05-07T20:25:33.248Z,61.19
2019-05-07T20:28:03.994Z,61.48
2019-05-07T20:30:34.786Z,62.03
2019-05-07T20:33:05.693Z,61.52
2019-05-07T20:35:39.385Z,62.12
2019-05-07T20:38:09.264Z,62.22
2019-05-07T20:40:41.941Z,62.73
2019-05-07T20:43:12.789Z,62.01
2019-05-07T20:45:43.603Z,62.81
2019-05-07T20:48:14.404Z,63.67
2019-05-07T20:50:45.183Z,64.19
2019-05-07T20:53:16.375Z,63.70
2019-05-07T20:55:49.070Z,63.78
2019-05-07T20:58:22.039Z,64.44
2019-05-07T21:00:52.793Z,64.60
2019-05-07T21:03:24.097Z,64.69
2019-05-07T21:05:54.878Z,64.83
2019-05-07T21:08:25.647Z,64.98
2019-05-07T21:10:56.448Z,64.76
2019-05-07T21:13:31.474Z,65.12
2019-05-07T21:16:00.049Z,65.25
2019-05-07T21:18:32.895Z,64.38
2019-05-07T21:21:03.684Z,65.40
2019-05-07T21:23:34.442Z,66.00
2019-05-07T21:26:05.510Z,66.33
2019-05-07T21:28:36.220Z,66.48
2019-05-07T21:31:07.351Z,66.78
2019-05-07T21:33:38.140Z,66.77
2019-05-07T21:36:08.935Z,66.45
2019-05-07T21:38:42.558Z,66.37
2019-05-07T21:41:16.013Z,67.18
2019-05-07T21:43:46.761Z,66.36
2019-05-07T21:46:17.564Z,66.72
2019-05-07T21:48:48.816Z,66.78
2019-05-07T21:51:19.609Z,67.45
2019-05-07T21:53:53.780Z,65.62
2019-05-07T21:56:26.577Z,67.35
2019-05-07T21:59:03.009Z,67.51
2019-05-07T22:01:45.274Z,67.84
2019-05-07T22:04:16.174Z,67.42
2019-05-07T22:06:46.954Z,67.40
2019-05-07T22:09:17.930Z,67.87
2019-05-07T22:11:48.878Z,67.91
2019-05-07T22:14:22.021Z,67.87
2019-05-07T22:16:54.500Z,68.03
2019-05-07T22:19:25.120Z,67.73
2019-05-07T22:21:55.901Z,67.85
2019-05-07T22:24:26.672Z,68.42
2019-05-07T22:26:57.460Z,68.07
2019-05-07T22:29:28.223Z,68.63
2019-05-07T22:32:02.710Z,68.41
2019-05-07T22:34:35.500Z,68.40
2019-05-07T22:37:06.390Z,68.78
2019-05-07T22:39:37.154Z,68.71
2019-05-07T22:42:07.941Z,68.01
2019-05-07T22:44:38.728Z,68.79
2019-05-07T22:47:22.209Z,68.03
2019-05-07T22:49:53.222Z,68.72
2019-05-07T22:52:23.593Z,68.60
2019-05-07T22:54:54.650Z,69.01
2019-05-07T22:57:33.191Z,67.76
2019-05-07T23:00:07.358Z,69.51
2019-05-07T23:02:38.144Z,69.46
2019-05-07T23:05:09.024Z,69.51
2019-05-07T23:07:41.808Z,69.25
2019-05-07T23:10:12.591Z,69.71
2019-05-07T23:12:43.384Z,70.11
2019-05-07T23:15:14.157Z,70.86
2019-05-07T23:17:44.934Z,70.48
2019-05-07T23:20:15.700Z,70.45
2019-05-07T23:22:46.477Z,69.79
2019-05-07T23:25:17.234Z,70.44
2019-05-07T23:27:48.007Z,70.46
2019-05-07T23:30:18.777Z,71.15
2019-05-07T23:32:49.552Z,71.32
2019-05-07T23:35:22.223Z,71.06
2019-05-07T23:37:53.160Z,71.06
2019-05-07T23:40:42.675Z,70.85
2019-05-07T23:43:18.207Z,71.05
2019-05-07T23:45:48.976Z,71.34
2019-05-07T23:48:20.046Z,71.95
2019-05-07T23:50:52.544Z,71.09
2019-05-07T23:53:23.412Z,71.84
2019-05-07T23:55:54.185Z,72.26
2019-05-07T23:58:24.960Z,70.65
